1897 NOT_NAMED (1897042S12064)


IBTrACS version v04r00. Visit IBTrACS website for data access.
Please direct all questions to the IBTrACS Q and A forum

Storm track - Intensity - Wind Radii - Intensity Data - Source Data - All data

Summary Information

Storm ID 1897042S12064
Start Feb 11 06Z
End Feb 23 06Z
ATCF IDs
Track status Best track data.

Storm track plot

Map of storm track

Intensity plots

No Intensity information for this storm


Radial wind information

No radial wind information for this storm


Position and Intensity Table

BASIN ISO_TIME_________ NATURE LAT LON
degrees north degrees east
SI 1897-02-11 06:00:00 NR -12.20 64.10
SI 09:00:00 NR -12.21 63.82
SI 12:00:00 NR -12.21 63.54
SI 15:00:00 NR -12.22 63.25
SI 18:00:00 NR -12.23 62.95
SI 21:00:00 NR -12.24 62.62
SI 1897-02-12 00:00:00 NR -12.26 62.28
SI 03:00:00 NR -12.28 61.91
SI 06:00:00 NR -12.30 61.50
SI 09:00:00 NR -12.33 61.06
SI 12:00:00 NR -12.36 60.59
SI 15:00:00 NR -12.39 60.11
SI 18:00:00 NR -12.43 59.62
SI 21:00:00 NR -12.47 59.13
SI 1897-02-13 00:00:00 NR -12.51 58.66
SI 03:00:00 NR -12.55 58.21
SI 06:00:00 NR -12.60 57.80
SI 09:00:00 NR -12.64 57.45
SI 12:00:00 NR -12.69 57.13
SI 15:00:00 NR -12.74 56.83
SI 18:00:00 NR -12.79 56.56
SI 21:00:00 NR -12.84 56.30
SI 1897-02-14 00:00:00 NR -12.89 56.06
SI 03:00:00 NR -12.95 55.83
SI 06:00:00 NR -13.00 55.60
SI 09:00:00 NR -13.04 55.35
SI 12:00:00 NR -13.07 55.12
SI 15:00:00 NR -13.11 54.89
SI 18:00:00 NR -13.15 54.66
SI 21:00:00 NR -13.19 54.44
SI 1897-02-15 00:00:00 NR -13.25 54.23
SI 03:00:00 NR -13.32 54.01
SI 06:00:00 NR -13.40 53.80
SI 09:00:00 NR -13.48 53.57
SI 12:00:00 NR -13.57 53.34
SI 15:00:00 NR -13.67 53.11
SI 18:00:00 NR -13.79 52.88
SI 21:00:00 NR -13.93 52.67
SI 1897-02-16 00:00:00 NR -14.10 52.46
SI 03:00:00 NR -14.28 52.27
SI 06:00:00 NR -14.50 52.10
SI 09:00:00 NR -14.75 51.94
SI 12:00:00 NR -15.04 51.79
SI 15:00:00 NR -15.34 51.66
SI 18:00:00 NR -15.67 51.54
SI 21:00:00 NR -16.00 51.43
SI 1897-02-17 00:00:00 NR -16.34 51.34
SI 03:00:00 NR -16.67 51.26
SI 06:00:00 NR -17.00 51.20
SI 09:00:00 NR -17.25 51.10
SI 12:00:00 NR -17.48 51.01
SI 15:00:00 NR -17.72 50.93
SI 18:00:00 NR -17.96 50.88
SI 21:00:00 NR -18.22 50.85
SI 1897-02-18 00:00:00 NR -18.50 50.86
SI 03:00:00 NR -18.83 50.91
SI 06:00:00 NR -19.20 51.00
SI 09:00:00 NR -19.67 51.14
SI 12:00:00 NR -20.20 51.32
SI 15:00:00 NR -20.76 51.54
SI 18:00:00 NR -21.34 51.81
SI 21:00:00 NR -21.93 52.10
SI 1897-02-19 00:00:00 NR -22.51 52.41
SI 03:00:00 NR -23.07 52.75
SI 06:00:00 NR -23.60 53.10
SI 09:00:00 NR -24.03 53.43
SI 12:00:00 NR -24.44 53.77
SI 15:00:00 NR -24.82 54.13
SI 18:00:00 NR -25.18 54.50
SI 21:00:00 NR -25.53 54.89
SI 1897-02-20 00:00:00 NR -25.88 55.28
SI 03:00:00 NR -26.24 55.69
SI 06:00:00 NR -26.60 56.10
SI 09:00:00 NR -26.95 56.51
SI 12:00:00 NR -27.30 56.93
SI 15:00:00 NR -27.66 57.35
SI 18:00:00 NR -28.04 57.79
SI 21:00:00 NR -28.44 58.23
SI 1897-02-21 00:00:00 NR -28.88 58.68
SI 03:00:00 NR -29.36 59.13
SI 06:00:00 NR -29.90 59.60
SI 09:00:00 NR -30.59 60.14
SI 12:00:00 NR -31.35 60.70
SI 15:00:00 NR -32.15 61.26
SI 18:00:00 NR -32.95 61.83
SI 21:00:00 NR -33.73 62.37
SI 1897-02-22 00:00:00 NR -34.47 62.87
SI 03:00:00 NR -35.13 63.32
SI 06:00:00 NR -35.70 63.70
SI 09:00:00 NR -36.15 63.99
SI 12:00:00 NR -36.48 64.19
SI 15:00:00 NR -36.73 64.32
SI 18:00:00 NR -36.90 64.39
SI 21:00:00 NR -37.00 64.41
SI 1897-02-23 00:00:00 NR -37.06 64.40
SI 03:00:00 NR -37.09 64.35
SI 06:00:00 NR -37.10 64.30

Source Information

Agency Information
USA
TOKYO
CMA
HKO
NEWDELHI
REUNION WMO-Best-Tracks.txt:Line=1775:xxxx897261
BOM
NADI
WELLINGTON
DS824
TD9636
TD9635
NEUMANN
MLC

All available IBTrACS Data

SEASON BASIN SUBBASIN ISO_TIME_________ NATURE LAT LON WMO AGENCY DIST2LAND LANDFALL IFLAG USA SSHS REUNION LAT REUNION LON REUNION TYPE REUNION TNUM STORM SPEED STORM DIR
Year degrees north degrees east km km 1 degrees north degrees east 1 kts degrees
1897 SI MM 1897-02-11 06:00:00 NR -12.20 64.10 reunion 1117 1098 _____O________ -1 -12.20 64.10 99 9.90 5 269
1897 SI MM 09:00:00 NR -12.21 63.82 1098 1085 _____P________ -1 -12.21 63.82 99 5 269
1897 SI MM 12:00:00 NR -12.21 63.54 1079 1067 _____P________ -1 -12.21 63.54 99 6 268
1897 SI MM 15:00:00 NR -12.22 63.25 1067 1049 _____P________ -1 -12.22 63.25 99 6 268
1897 SI MM 18:00:00 NR -12.23 62.95 1043 1027 _____P________ -1 -12.23 62.95 99 6 268
1897 SI MM 21:00:00 NR -12.24 62.62 1027 1001 _____P________ -1 -12.24 62.62 99 7 268
1897 SI MM 1897-02-12 00:00:00 NR -12.26 62.28 1001 981 _____P________ -1 -12.26 62.28 99 7 267
1897 SI MM 03:00:00 NR -12.28 61.91 981 962 _____P________ -1 -12.28 61.91 99 8 267
1897 SI MM 06:00:00 NR -12.30 61.50 reunion 962 945 _____O________ -1 -12.30 61.50 99 9.90 8 267
1897 SI MM 09:00:00 NR -12.33 61.06 945 915 _____P________ -1 -12.33 61.06 99 9 266
1897 SI MM 12:00:00 NR -12.36 60.59 915 899 _____P________ -1 -12.36 60.59 99 9 266
1897 SI MM 15:00:00 NR -12.39 60.11 899 885 _____P________ -1 -12.39 60.11 99 10 266
1897 SI MM 18:00:00 NR -12.43 59.62 885 865 _____P________ -1 -12.43 59.62 99 10 265
1897 SI MM 21:00:00 NR -12.47 59.13 863 857 _____P________ -1 -12.47 59.13 99 9 265
1897 SI MM 1897-02-13 00:00:00 NR -12.51 58.66 857 841 _____P________ -1 -12.51 58.66 99 9 265
1897 SI MM 03:00:00 NR -12.55 58.21 841 839 _____P________ -1 -12.55 58.21 99 8 264
1897 SI MM 06:00:00 NR -12.60 57.80 reunion 839 809 _____O________ -1 -12.60 57.80 99 9.90 8 263
1897 SI MM 09:00:00 NR -12.64 57.45 799 765 _____P________ -1 -12.64 57.45 99 7 262
1897 SI MM 12:00:00 NR -12.69 57.13 765 735 _____P________ -1 -12.69 57.13 99 6 261
1897 SI MM 15:00:00 NR -12.74 56.83 735 711 _____P________ -1 -12.74 56.83 99 6 260
1897 SI MM 18:00:00 NR -12.79 56.56 711 680 _____P________ -1 -12.79 56.56 99 5 259
1897 SI MM 21:00:00 NR -12.84 56.30 680 656 _____P________ -1 -12.84 56.30 99 5 258
1897 SI MM 1897-02-14 00:00:00 NR -12.89 56.06 656 625 _____P________ -1 -12.89 56.06 99 5 257
1897 SI MM 03:00:00 NR -12.95 55.83 625 601 _____P________ -1 -12.95 55.83 99 5 257
1897 SI MM 06:00:00 NR -13.00 55.60 reunion 601 580 _____O________ -1 -13.00 55.60 99 9.90 5 259
1897 SI MM 09:00:00 NR -13.04 55.35 580 546 _____P________ -1 -13.04 55.35 99 5 261
1897 SI MM 12:00:00 NR -13.07 55.12 546 525 _____P________ -1 -13.07 55.12 99 5 261
1897 SI MM 15:00:00 NR -13.11 54.89 525 503 _____P________ -1 -13.11 54.89 99 5 260
1897 SI MM 18:00:00 NR -13.15 54.66 503 480 _____P________ -1 -13.15 54.66 99 4 259
1897 SI MM 21:00:00 NR -13.19 54.44 470 448 _____P________ -1 -13.19 54.44 99 4 256
1897 SI MM 1897-02-15 00:00:00 NR -13.25 54.23 448 425 _____P________ -1 -13.25 54.23 99 4 254
1897 SI MM 03:00:00 NR -13.32 54.01 425 402 _____P________ -1 -13.32 54.01 99 4 250
1897 SI MM 06:00:00 NR -13.40 53.80 reunion 402 379 _____O________ -1 -13.40 53.80 99 9.90 5 250
1897 SI MM 09:00:00 NR -13.48 53.57 379 346 _____P________ -1 -13.48 53.57 99 5 250
1897 SI MM 12:00:00 NR -13.57 53.34 346 324 _____P________ -1 -13.57 53.34 99 5 247
1897 SI MM 15:00:00 NR -13.67 53.11 324 302 _____P________ -1 -13.67 53.11 99 5 243
1897 SI MM 18:00:00 NR -13.79 52.88 302 278 _____P________ -1 -13.79 52.88 99 5 239
1897 SI MM 21:00:00 NR -13.93 52.67 278 247 _____P________ -1 -13.93 52.67 99 5 233
1897 SI MM 1897-02-16 00:00:00 NR -14.10 52.46 247 218 _____P________ -1 -14.10 52.46 99 5 227
1897 SI MM 03:00:00 NR -14.28 52.27 218 189 _____P________ -1 -14.28 52.27 99 5 221
1897 SI MM 06:00:00 NR -14.50 52.10 reunion 189 160 _____O________ -1 -14.50 52.10 99 9.90 6 215
1897 SI MM 09:00:00 NR -14.75 51.94 156 141 _____P________ -1 -14.75 51.94 99 6 209
1897 SI MM 12:00:00 NR -15.04 51.79 141 128 _____P________ -1 -15.04 51.79 99 7 205
1897 SI MM 15:00:00 NR -15.34 51.66 128 109 _____P________ -1 -15.34 51.66 99 7 201
1897 SI MM 18:00:00 NR -15.67 51.54 112 111 _____P________ -1 -15.67 51.54 99 7 198
1897 SI MM 21:00:00 NR -16.00 51.43 116 116 _____P________ -1 -16.00 51.43 99 7 196
1897 SI MM 1897-02-17 00:00:00 NR -16.34 51.34 120 120 _____P________ -1 -16.34 51.34 99 7 193
1897 SI MM 03:00:00 NR -16.67 51.26 141 139 _____P________ -1 -16.67 51.26 99 7 192
1897 SI MM 06:00:00 NR -17.00 51.20 reunion 150 142 _____O________ -1 -17.00 51.20 99 9.90 6 195
1897 SI MM 09:00:00 NR -17.25 51.10 145 144 _____P________ -1 -17.25 51.10 99 5 200
1897 SI MM 12:00:00 NR -17.48 51.01 149 148 _____P________ -1 -17.48 51.01 99 5 198
1897 SI MM 15:00:00 NR -17.72 50.93 148 148 _____P________ -1 -17.72 50.93 99 5 195
1897 SI MM 18:00:00 NR -17.96 50.88 151 151 _____P________ -1 -17.96 50.88 99 5 189
1897 SI MM 21:00:00 NR -18.22 50.85 158 158 _____P________ -1 -18.22 50.85 99 6 182
1897 SI MM 1897-02-18 00:00:00 NR -18.50 50.86 161 161 _____P________ -1 -18.50 50.86 99 6 175
1897 SI MM 03:00:00 NR -18.83 50.91 171 171 _____P________ -1 -18.83 50.91 99 7 169
1897 SI MM 06:00:00 NR -19.20 51.00 reunion 197 197 _____O________ -1 -19.20 51.00 99 9.90 9 166
1897 SI MM 09:00:00 NR -19.67 51.14 223 223 _____P________ -1 -19.67 51.14 99 10 163
1897 SI MM 12:00:00 NR -20.20 51.32 261 261 _____P________ -1 -20.20 51.32 99 12 161
1897 SI MM 15:00:00 NR -20.76 51.54 295 295 _____P________ -1 -20.76 51.54 99 12 158
1897 SI MM 18:00:00 NR -21.34 51.81 344 332 _____P________ -1 -21.34 51.81 99 13 156
1897 SI MM 21:00:00 NR -21.93 52.10 332 323 _____P________ -1 -21.93 52.10 99 13 154
1897 SI MM 1897-02-19 00:00:00 NR -22.51 52.41 327 322 _____P________ -1 -22.51 52.41 99 13 152
1897 SI MM 03:00:00 NR -23.07 52.75 326 326 _____P________ -1 -23.07 52.75 99 13 150
1897 SI MM 06:00:00 NR -23.60 53.10 reunion 342 342 _____O________ -1 -23.60 53.10 99 9.90 11 147
1897 SI MM 09:00:00 NR -24.03 53.43 359 359 _____P________ -1 -24.03 53.43 99 10 144
1897 SI MM 12:00:00 NR -24.44 53.77 379 379 _____P________ -1 -24.44 53.77 99 10 141
1897 SI MM 15:00:00 NR -24.82 54.13 409 409 _____P________ -1 -24.82 54.13 99 10 138
1897 SI MM 18:00:00 NR -25.18 54.50 439 436 _____P________ -1 -25.18 54.50 99 10 136
1897 SI MM 21:00:00 NR -25.53 54.89 463 463 _____P________ -1 -25.53 54.89 99 10 135
1897 SI MM 1897-02-20 00:00:00 NR -25.88 55.28 503 503 _____P________ -1 -25.88 55.28 99 10 134
1897 SI MM 03:00:00 NR -26.24 55.69 536 536 _____P________ -1 -26.24 55.69 99 10 134
1897 SI MM 06:00:00 NR -26.60 56.10 reunion 583 583 _____O________ -1 -26.60 56.10 99 9.90 10 134
1897 SI MM 09:00:00 NR -26.95 56.51 632 632 _____P________ -1 -26.95 56.51 99 10 134
1897 SI MM 12:00:00 NR -27.30 56.93 672 672 _____P________ -1 -27.30 56.93 99 10 133
1897 SI MM 15:00:00 NR -27.66 57.35 727 727 _____P________ -1 -27.66 57.35 99 11 134
1897 SI MM 18:00:00 NR -28.04 57.79 770 770 _____P________ -1 -28.04 57.79 99 11 135
1897 SI MM 21:00:00 NR -28.44 58.23 824 824 _____P________ -1 -28.44 58.23 99 12 137
1897 SI MM 1897-02-21 00:00:00 NR -28.88 58.68 893 893 _____P________ -1 -28.88 58.68 99 12 139
1897 SI MM 03:00:00 NR -29.36 59.13 960 960 _____P________ -1 -29.36 59.13 99 13 142
1897 SI MM 06:00:00 NR -29.90 59.60 reunion 1030 1030 _____O________ -1 -29.90 59.60 99 9.90 15 145
1897 SI MM 09:00:00 NR -30.59 60.14 1121 1121 _____P________ -1 -30.59 60.14 99 17 147
1897 SI MM 12:00:00 NR -31.35 60.70 1226 1226 _____P________ -1 -31.35 60.70 99 18 148
1897 SI MM 15:00:00 NR -32.15 61.26 1321 1321 _____P________ -1 -32.15 61.26 99 19 149
1897 SI MM 18:00:00 NR -32.95 61.83 1422 1422 _____P________ -1 -32.95 61.83 99 18 150
1897 SI MM 21:00:00 NR -33.73 62.37 1526 1526 _____P________ -1 -33.73 62.37 99 18 150
1897 SI MM 1897-02-22 00:00:00 NR -34.47 62.87 1627 1591 _____P________ -1 -34.47 62.87 99 16 151
1897 SI MM 03:00:00 NR -35.13 63.32 1591 1517 _____P________ -1 -35.13 63.32 99 14 151
1897 SI MM 06:00:00 NR -35.70 63.70 reunion 1517 1467 _____O________ -1 -35.70 63.70 99 9.90 11 152
1897 SI MM 09:00:00 NR -36.15 63.99 1467 1419 _____P________ -1 -36.15 63.99 99 9 153
1897 SI MM 12:00:00 NR -36.48 64.19 1419 1395 _____P________ -1 -36.48 64.19 99 6 155
1897 SI MM 15:00:00 NR -36.73 64.32 1395 1372 _____P________ -1 -36.73 64.32 99 4 158
1897 SI MM 18:00:00 NR -36.90 64.39 1372 1361 _____P________ -1 -36.90 64.39 99 3 167
1897 SI MM 21:00:00 NR -37.00 64.41 1361 1350 _____P________ -1 -37.00 64.41 99 2 0
1897 SI MM 1897-02-23 00:00:00 NR -37.06 64.40 1350 1350 _____P________ -1 -37.06 64.40 99 1 206
1897 SI MM 03:00:00 NR -37.09 64.35 1350 1350 _____P________ -1 -37.09 64.35 99 1 243
1897 SI MM 06:00:00 NR -37.10 64.30 reunion 1352 _____O________ -1 -37.10 64.30 99 9.90 1 251